Atlantic - Newfoundland: Past 24 Hour Conditions

 

Blanc-Sablon Airport

07:00 PM AST 25 October 2014
This table is a summary of hourly weather conditions for the past 24 hours.
Date / Time
(AST)
Wind(knots) Conditions Visibility(km) Pressure(kPa) Air tempC) Relative humidity(%) Dew pointC)
25 October 2014
19:00 ENE 16 gust 24 Cloudy 24 100.8 2 71 -2
18:00 ENE 17 gust 27 Cloudy 24 100.8 2 72 -2
17:00 ENE 21 gust 27 Cloudy 24 100.8 3 71 -2
16:00 ENE 17 gust 27 Cloudy 24 100.8 3 69 -2
15:00 ENE 21 gust 33 Cloudy 24 100.8 3 68 -2
14:00 ENE 22 gust 28 Cloudy 24 100.8 3 69 -2
13:00 ENE 24 gust 36 Cloudy 24 100.8 3 72 -2
12:00 ENE 22 gust 36 Cloudy 24 100.8 4 71 -1
11:00 ENE 26 gust 34 Cloudy 24 100.9 3 69 -2
10:00 ENE 21 gust 34 Cloudy 24 100.9 3 70 -2
9:00 ENE 22 gust 31 Cloudy 24 100.9 2 73 -2
8:00 ENE 21 gust 33 Cloudy 24 100.9 2 72 -2
7:00 ENE 26 gust 32 Cloudy 24 100.9 2 74 -2
6:00 ENE 22 gust 30 Cloudy 24 100.9 2 80 -1
5:00 NE 15 gust 25 Cloudy 24 101.0 2 83 -1
4:00 ENE 23 gust 30 Cloudy 24 101.0 2 76 -2
3:00 NE 20 gust 28 Cloudy 24 101.0 2 78 -2
2:00 ENE 20 gust 26 Mostly Cloudy 24 101.0 2 80 -2
1:00 ENE 19 Mostly Cloudy 24 101.0 2 80 -1
0:00 ENE 18 gust 25 Cloudy 24 101.1 2 80 -1
24 October 2014
23:00 ENE 20 gust 28 Cloudy 24 101.1 3 79 -1
22:00 ENE 19 gust 30 Cloudy 24 101.2 3 88 1
21:00 ENE 21 gust 30 Cloudy 24 101.3 2 90 1
20:00 ENE 17 gust 24 Cloudy 24 101.3 2 89 1
19:00 ENE 23 gust 28 Cloudy 24 101.4 3 84 0
 
Map of Atlantic - Newfoundland marine weather areas Southwestern Grand Banks - 44138 Banquereau - 44139 Tail of the Bank - 44140 Nickerson Bank - 44251 Northeast Burgeo Bank - 44255 Blanc-Sablon Airport Cap Whittle Chevery Natashquan Airport Heath Point Miscou Island Grand Étang Ingonish Beach North Mountain St.Paul Island J.A. Douglas McCurdy Sydney Airport Charlottetown Airport East Point North Cape Argentia Bonavista Burgeo Cape Race Corner Brook Daniel's Harbour Englee Ferolle Point La Scie Port aux Basques Rocky Harbour Sagona Island St. Anthony Airport St. John's Int'l Airport St. Lawrence Stephenville Airport Twillingate Winterland Wreckhouse Cartwright Airport Mary's Harbour Grates Cove Pool's Island Marticot Island Long Pond Îles de la Madeleine Airport
Legend: buoyBuoy land stationLand Station